Time;durP1;ratioP1;P1;durP2;ratioP2;P2;SDS_P1;SDS_P2;PMS_P1;PMS_P2;Temp;Humidity;BMP_temperature;BMP_pressure;BME280_temperature;BME280_humidity;BME280_pressure;Samples;Min_cycle;Max_cycle;Signal;HPM_P1;HPM_P2
2022/06/17 00:01:48;;;;;;;7.82;5.75;;;14.10;99.90;;;;;;4975641;28;20044;-75
2022/06/17 00:04:16;;;;;;;5.80;5.20;;;14.00;99.90;;;;;;5001294;28;20046;-75
2022/06/17 00:06:58;;;;;;;7.15;5.53;;;14.00;99.90;;;;;;5004343;28;20049;-75
2022/06/17 00:09:26;;;;;;;8.85;5.18;;;14.00;99.90;;;;;;5007840;28;20077;-74
2022/06/17 00:11:53;;;;;;;6.85;5.22;;;14.00;99.90;;;;;;5011841;28;20034;-75
2022/06/17 00:14:23;;;;;;;6.50;5.05;;;14.00;99.90;;;;;;5004813;28;20042;-74
2022/06/17 00:16:49;;;;;;;6.25;5.13;;;14.00;99.90;;;;;;5006301;28;20064;-75
2022/06/17 00:19:18;;;;;;;7.50;6.00;;;14.00;99.90;;;;;;5016324;28;20057;-74
2022/06/17 00:21:50;;;;;;;6.80;5.20;;;14.00;99.90;;;;;;4989819;28;20045;-75
2022/06/17 00:24:26;;;;;;;8.85;7.05;;;13.90;99.90;;;;;;5011747;28;20045;-75
2022/06/17 00:26:56;;;;;;;6.70;5.82;;;13.90;99.90;;;;;;5044627;28;20123;-74
2022/06/17 00:29:25;;;;;;;8.15;6.75;;;13.90;99.90;;;;;;5028752;28;20096;-74
2022/06/17 00:31:51;;;;;;;7.90;6.82;;;13.90;99.90;;;;;;4996895;28;20068;-75
2022/06/17 00:34:17;;;;;;;7.40;6.60;;;13.90;99.90;;;;;;5029161;28;20042;-75
2022/06/17 00:36:44;;;;;;;8.55;7.00;;;13.90;99.90;;;;;;5030465;28;20053;-75
2022/06/17 00:39:15;;;;;;;9.73;7.85;;;14.00;99.90;;;;;;4990708;28;20038;-75
2022/06/17 00:41:44;;;;;;;8.55;7.65;;;14.00;99.90;;;;;;5008887;28;20046;-75
2022/06/17 00:44:52;;;;;;;10.82;9.40;;;14.10;99.90;;;;;;5008461;28;20046;-74
2022/06/17 00:47:37;;;;;;;8.57;7.78;;;14.10;99.90;;;;;;4993117;28;20052;-75
2022/06/17 00:50:31;;;;;;;10.07;8.07;;;14.10;99.90;;;;;;5005634;28;20378;-75
2022/06/17 00:53:10;;;;;;;9.02;7.95;;;14.10;99.90;;;;;;5005328;28;20092;-74
2022/06/17 00:55:42;;;;;;;8.88;7.78;;;14.10;99.90;;;;;;5004437;28;20762;-75
2022/06/17 00:58:16;;;;;;;8.00;7.25;;;14.10;99.90;;;;;;5003247;28;20489;-74
2022/06/17 01:00:44;;;;;;;8.85;8.05;;;14.10;99.90;;;;;;5043496;28;20489;-74
2022/06/17 01:03:15;;;;;;;8.45;7.70;;;14.10;99.90;;;;;;5005071;28;20056;-75
2022/06/17 01:05:51;;;;;;;9.63;8.80;;;14.00;99.90;;;;;;5026044;28;20053;-75
2022/06/17 01:11:23;;;;;;;11.25;9.43;;;14.00;99.90;;;;;;5005768;28;20050;-75
2022/06/17 01:13:50;;;;;;;10.38;9.07;;;14.00;99.90;;;;;;5007897;28;20042;-75
2022/06/17 01:16:18;;;;;;;12.43;9.23;;;14.00;99.90;;;;;;4992754;28;20526;-76
2022/06/17 01:18:46;;;;;;;10.25;9.13;;;14.00;99.90;;;;;;4994679;28;20223;-75
2022/06/17 01:21:30;;;;;;;10.30;9.15;;;13.90;99.90;;;;;;4996469;28;20813;-75
2022/06/17 01:23:56;;;;;;;10.13;8.35;;;13.90;99.90;;;;;;5003795;28;20377;-75
2022/06/17 01:26:21;;;;;;;10.77;8.35;;;13.90;99.90;;;;;;5006798;28;20048;-75
2022/06/17 01:28:47;;;;;;;10.35;9.30;;;13.90;99.90;;;;;;5002985;28;20038;-75
2022/06/17 01:31:17;;;;;;;12.23;9.73;;;13.90;99.90;;;;;;4989220;28;20073;-75
2022/06/17 01:33:44;;;;;;;11.73;10.53;;;13.80;99.90;;;;;;5020323;28;20034;-75
2022/06/17 01:36:25;;;;;;;11.43;10.30;;;13.80;99.90;;;;;;4996541;28;20327;-75
2022/06/17 01:38:54;;;;;;;10.90;9.68;;;13.90;99.90;;;;;;4987785;28;20046;-76
2022/06/17 01:41:30;;;;;;;12.57;11.35;;;13.80;99.90;;;;;;4996887;28;20757;-76
2022/06/17 01:44:11;;;;;;;12.85;10.57;;;13.90;99.90;;;;;;5015165;28;20038;-75
2022/06/17 01:46:48;;;;;;;13.00;11.52;;;13.90;99.90;;;;;;5027869;28;20127;-75
2022/06/17 01:49:30;;;;;;;11.02;9.90;;;13.80;99.90;;;;;;4984480;28;20560;-75
2022/06/17 01:52:13;;;;;;;12.57;11.10;;;13.80;99.90;;;;;;5024685;28;20038;-75
2022/06/17 01:55:10;;;;;;;12.00;10.80;;;13.80;99.90;;;;;;5017312;28;20038;-75
2022/06/17 01:57:43;;;;;;;13.48;12.18;;;13.70;99.90;;;;;;5007924;28;20057;-75
2022/06/17 02:00:14;;;;;;;13.35;11.98;;;13.60;99.90;;;;;;4999266;28;20033;-76
2022/06/17 02:02:41;;;;;;;14.15;12.23;;;13.60;99.90;;;;;;4994452;28;20440;-75
2022/06/17 02:05:09;;;;;;;13.70;12.40;;;13.50;99.90;;;;;;5001052;28;20050;-75
2022/06/17 02:07:57;;;;;;;12.32;11.13;;;13.50;99.90;;;;;;5006258;28;20416;-74
2022/06/17 02:10:29;;;;;;;13.27;11.98;;;13.50;99.90;;;;;;5036279;28;20042;-74
2022/06/17 02:12:56;;;;;;;11.43;10.32;;;13.40;99.90;;;;;;4989308;28;20050;-74
2022/06/17 02:15:23;;;;;;;11.68;10.55;;;13.40;99.90;;;;;;4989633;28;20120;-75
2022/06/17 02:17:51;;;;;;;12.45;11.25;;;13.40;99.90;;;;;;5001515;28;20489;-75
2022/06/17 02:20:18;;;;;;;11.43;10.20;;;13.50;99.90;;;;;;4991149;28;20446;-74
2022/06/17 02:22:47;;;;;;;10.95;9.93;;;13.50;99.90;;;;;;5022391;28;20092;-74
2022/06/17 02:25:18;;;;;;;12.00;10.75;;;13.50;99.90;;;;;;5010002;28;20053;-74
2022/06/17 02:27:53;;;;;;;12.65;11.30;;;13.50;99.90;;;;;;5022225;28;20145;-75
2022/06/17 02:30:19;;;;;;;11.52;10.32;;;13.50;99.90;;;;;;5006517;28;20041;-75
2022/06/17 02:32:46;;;;;;;10.98;9.98;;;13.50;99.90;;;;;;4984621;28;20050;-75
2022/06/17 02:35:36;;;;;;;11.32;10.30;;;13.50;99.90;;;;;;4988770;28;20034;-74
2022/06/17 02:38:02;;;;;;;;;;;13.50;99.90;;;;;;4988002;28;20069;-75
2022/06/17 02:40:35;;;;;;;13.30;11.85;;;13.50;99.90;;;;;;4994238;28;19971;-75
2022/06/17 02:43:05;;;;;;;10.65;9.55;;;13.50;99.90;;;;;;5004246;28;20045;-74
2022/06/17 02:45:35;;;;;;;11.77;10.68;;;13.50;99.90;;;;;;5003603;28;20046;-75
2022/06/17 02:48:07;;;;;;;12.05;10.70;;;13.40;99.90;;;;;;5037712;28;20073;-74
2022/06/17 02:50:33;;;;;;;11.05;9.88;;;13.40;99.90;;;;;;5001873;28;20080;-75
2022/06/17 02:53:01;;;;;;;12.00;9.55;;;13.40;99.90;;;;;;4982652;28;20077;-75
2022/06/17 02:55:34;;;;;;;11.20;10.00;;;13.40;99.90;;;;;;5016069;28;20050;-74
2022/06/17 02:58:17;;;;;;;11.40;10.20;;;13.40;99.90;;;;;;5013024;28;20396;-74
2022/06/17 03:00:45;;;;;;;11.15;10.05;;;13.40;99.90;;;;;;5027399;28;20519;-74
2022/06/17 03:03:14;;;;;;;11.35;10.25;;;13.40;99.90;;;;;;4999207;28;20069;-74
2022/06/17 03:05:44;;;;;;;13.43;11.93;;;13.40;99.90;;;;;;4986251;28;20038;-75
2022/06/17 03:08:32;;;;;;;13.23;11.10;;;13.40;99.90;;;;;;4984504;28;20410;-74
2022/06/17 03:11:00;;;;;;;12.15;10.93;;;13.40;99.90;;;;;;5003706;28;20053;-74
2022/06/17 03:13:35;;;;;;;13.02;11.82;;;13.40;99.90;;;;;;5006982;28;20062;-74
2022/06/17 03:16:05;;;;;;;12.70;11.48;;;13.40;99.90;;;;;;5021206;28;20038;-74
2022/06/17 03:18:31;;;;;;;;;;;13.40;99.90;;;;;;4989576;28;20045;-75
2022/06/17 03:20:58;;;;;;;11.90;10.73;;;13.40;99.90;;;;;;5026079;28;21227;-74
2022/06/17 03:23:39;;;;;;;11.98;10.77;;;13.40;99.90;;;;;;4985417;28;20665;-74
2022/06/17 03:26:14;;;;;;;11.82;10.65;;;13.40;99.90;;;;;;5004112;28;20049;-74
2022/06/17 03:28:48;;;;;;;12.40;11.20;;;13.40;99.90;;;;;;5019500;28;20463;-75
2022/06/17 03:31:38;;;;;;;11.43;10.32;;;13.50;99.90;;;;;;4989388;28;20082;-75
2022/06/17 03:34:07;;;;;;;13.02;11.02;;;13.50;99.90;;;;;;4988188;28;20092;-74
2022/06/17 03:36:54;;;;;;;10.77;9.80;;;13.50;99.90;;;;;;5001271;28;20041;-74
2022/06/17 03:39:29;;;;;;;12.05;10.82;;;13.60;99.90;;;;;;5039117;28;20048;-75
2022/06/17 03:42:07;;;;;;;12.43;11.13;;;13.70;99.90;;;;;;5014411;28;20638;-73
2022/06/17 03:44:39;;;;;;;12.23;10.93;;;13.80;99.90;;;;;;4987956;28;20042;-74
2022/06/17 03:47:16;;;;;;;12.75;11.27;;;13.80;99.90;;;;;;5001643;28;20061;-74
2022/06/17 03:49:48;;;;;;;12.10;10.65;;;13.80;99.90;;;;;;4998214;28;20048;-75
2022/06/17 03:52:41;;;;;;;11.98;10.80;;;13.90;99.90;;;;;;5006656;28;20050;-73
2022/06/17 03:55:13;;;;;;;11.45;10.25;;;13.90;99.90;;;;;;5020447;28;20062;-75
2022/06/17 03:57:45;;;;;;;12.38;11.25;;;13.90;99.90;;;;;;5018542;28;20085;-75
2022/06/17 04:00:51;;;;;;;13.23;11.07;;;14.00;99.90;;;;;;5002797;28;20078;-74
2022/06/17 04:03:25;;;;;;;12.85;11.10;;;14.00;99.90;;;;;;4993131;28;20058;-75
2022/06/17 04:06:16;;;;;;;12.98;11.68;;;14.00;99.90;;;;;;4998642;28;20439;-74
2022/06/17 04:08:59;;;;;;;13.85;11.45;;;14.10;99.90;;;;;;5030671;28;20077;-74
2022/06/17 04:11:29;;;;;;;13.07;11.77;;;14.10;99.90;;;;;;4990945;28;20595;-73
2022/06/17 04:14:02;;;;;;;11.55;10.45;;;14.20;99.90;;;;;;5036283;28;20123;-74
2022/06/17 04:16:43;;;;;;;12.43;10.45;;;14.30;99.90;;;;;;5000873;28;20041;-74
2022/06/17 04:19:16;;;;;;;12.10;10.82;;;14.30;99.90;;;;;;5013118;28;20053;-75
2022/06/17 04:21:42;;;;;;;12.00;9.85;;;14.40;99.90;;;;;;4975906;28;20049;-75
2022/06/17 04:24:14;;;;;;;12.05;10.15;;;14.50;99.90;;;;;;5005637;28;20045;-74
2022/06/17 04:26:42;;;;;;;13.32;10.60;;;14.60;99.90;;;;;;5019109;28;20050;-75
2022/06/17 04:29:15;;;;;;;12.35;11.07;;;14.70;99.90;;;;;;4994973;28;20082;-75
2022/06/17 04:31:43;;;;;;;12.77;10.77;;;14.80;99.90;;;;;;4987538;28;20460;-75
2022/06/17 04:34:15;;;;;;;12.23;10.65;;;14.80;99.90;;;;;;4980206;28;20367;-75
2022/06/17 04:36:40;;;;;;;12.63;11.25;;;14.90;99.90;;;;;;5000808;28;20345;-75
2022/06/17 04:39:21;;;;;;;11.95;10.75;;;14.90;99.90;;;;;;4980506;28;20452;-75
2022/06/17 04:41:54;;;;;;;12.02;10.82;;;15.00;99.90;;;;;;5001387;28;20092;-75
2022/06/17 04:44:20;;;;;;;12.07;10.88;;;15.00;99.90;;;;;;5007629;28;20046;-75
2022/06/17 04:47:04;;;;;;;13.38;12.00;;;15.00;99.90;;;;;;4983658;28;20136;-75
2022/06/17 04:49:32;;;;;;;11.25;10.07;;;15.10;99.90;;;;;;4988741;28;20046;-75
2022/06/17 04:52:05;;;;;;;12.55;11.25;;;15.10;99.90;;;;;;5030219;28;20089;-76
2022/06/17 04:54:33;;;;;;;12.35;11.18;;;15.20;99.90;;;;;;5022074;28;20046;-76
2022/06/17 04:57:02;;;;;;;12.57;11.38;;;15.20;99.90;;;;;;5020655;28;20053;-75
2022/06/17 04:59:40;;;;;;;12.45;11.15;;;15.20;99.90;;;;;;5012626;28;20045;-75
2022/06/17 05:02:18;;;;;;;12.88;11.52;;;15.30;99.90;;;;;;4993519;28;20037;-74
2022/06/17 05:04:46;;;;;;;12.73;11.52;;;15.30;99.90;;;;;;4984801;28;20501;-75
2022/06/17 05:07:12;;;;;;;12.68;11.38;;;15.30;99.90;;;;;;5028049;28;20054;-75
2022/06/17 05:09:43;;;;;;;11.95;10.75;;;15.40;99.90;;;;;;4962259;28;20112;-74
2022/06/17 05:12:18;;;;;;;12.52;11.32;;;15.40;99.90;;;;;;4999618;28;20045;-75
2022/06/17 05:14:56;;;;;;;12.52;11.05;;;15.50;99.90;;;;;;5031528;28;20053;-74
2022/06/17 05:17:22;;;;;;;13.02;11.73;;;15.50;99.90;;;;;;5003694;28;20488;-74
2022/06/17 05:19:53;;;;;;;12.63;11.32;;;15.60;99.90;;;;;;5001787;28;20045;-74
2022/06/17 05:22:41;;;;;;;13.07;11.35;;;15.60;99.90;;;;;;5018817;28;20531;-74
2022/06/17 05:25:15;;;;;;;13.43;11.75;;;15.70;99.90;;;;;;4997879;28;20089;-74
2022/06/17 05:27:41;;;;;;;13.40;12.20;;;15.70;99.90;;;;;;5005538;28;20050;-76
2022/06/17 05:30:07;;;;;;;13.85;12.02;;;15.80;99.90;;;;;;4998190;28;20096;-75
2022/06/17 05:32:33;;;;;;;13.82;12.40;;;15.80;99.90;;;;;;5015594;28;20484;-75
2022/06/17 05:34:59;;;;;;;13.32;12.05;;;15.90;99.90;;;;;;4971773;28;20034;-74
2022/06/17 05:37:24;;;;;;;13.80;12.40;;;15.90;99.90;;;;;;5004930;28;20393;-74
2022/06/17 05:39:50;;;;;;;13.23;12.02;;;15.90;99.90;;;;;;5001099;28;20465;-74
2022/06/17 05:42:16;;;;;;;13.68;12.32;;;16.00;99.90;;;;;;4990874;28;20042;-75
2022/06/17 05:44:42;;;;;;;14.10;12.80;;;16.00;99.90;;;;;;4980435;28;20097;-75
2022/06/17 05:47:08;;;;;;;13.50;12.10;;;16.10;99.90;;;;;;4983727;28;20045;-75
2022/06/17 05:49:33;;;;;;;13.65;12.35;;;16.10;99.90;;;;;;4987414;28;20705;-75
2022/06/17 05:51:59;;;;;;;13.75;12.35;;;16.20;99.90;;;;;;5010204;28;20066;-75
2022/06/17 05:54:25;;;;;;;13.85;12.40;;;16.20;99.90;;;;;;5004808;28;20709;-71
2022/06/17 05:56:54;;;;;;;12.70;11.50;;;16.20;99.90;;;;;;4975992;28;20038;-71
2022/06/17 05:59:20;;;;;;;13.27;11.98;;;16.20;99.90;;;;;;5009131;28;20042;-71
2022/06/17 06:01:46;;;;;;;12.93;11.73;;;16.30;99.90;;;;;;4998591;28;20045;-71
2022/06/17 06:04:12;;;;;;;13.25;11.85;;;16.30;99.90;;;;;;4986756;28;20108;-71
2022/06/17 06:06:38;;;;;;;13.13;11.75;;;16.40;99.90;;;;;;4971694;28;20520;-71
2022/06/17 06:09:04;;;;;;;13.65;12.13;;;16.40;99.90;;;;;;4971137;28;20078;-71
2022/06/17 06:11:30;;;;;;;14.13;12.65;;;16.40;99.90;;;;;;4997922;28;20063;-71
2022/06/17 06:13:56;;;;;;;13.23;11.82;;;16.40;99.90;;;;;;4968406;28;20037;-71
2022/06/17 06:16:23;;;;;;;14.18;12.68;;;16.50;99.90;;;;;;4984802;28;20111;-72
2022/06/17 06:18:50;;;;;;;14.35;12.95;;;16.50;99.90;;;;;;4984146;28;20049;-72
2022/06/17 06:21:16;;;;;;;16.45;12.32;;;16.60;99.90;;;;;;4998011;28;20063;-72
2022/06/17 06:23:42;;;;;;;13.75;12.23;;;16.60;99.90;;;;;;5022538;28;20143;-72
2022/06/17 06:26:16;;;;;;;14.00;12.57;;;16.70;99.90;;;;;;4984101;28;20054;-72
2022/06/17 06:28:46;;;;;;;13.55;12.00;;;16.70;99.90;;;;;;5004459;28;20047;-71
2022/06/17 06:31:24;;;;;;;14.45;12.57;;;16.80;99.90;;;;;;4997079;28;20046;-72
2022/06/17 06:33:50;;;;;;;14.18;12.77;;;16.80;99.90;;;;;;5015497;28;20481;-72
2022/06/17 06:36:15;;;;;;;13.30;11.95;;;16.90;99.90;;;;;;4972205;28;20045;-72
2022/06/17 06:38:41;;;;;;;13.45;12.10;;;16.90;99.90;;;;;;4980812;28;20136;-71
2022/06/17 06:41:07;;;;;;;13.20;12.00;;;17.00;99.90;;;;;;5012046;28;20038;-71
2022/06/17 06:43:34;;;;;;;13.93;12.63;;;17.10;99.90;;;;;;5004775;28;20232;-71
2022/06/17 06:46:08;;;;;;;13.07;11.88;;;17.20;99.90;;;;;;4992607;28;20399;-71
2022/06/17 06:48:35;;;;;;;13.43;12.13;;;17.30;99.90;;;;;;5000978;28;20865;-71
2022/06/17 06:51:01;;;;;;;12.15;10.93;;;17.40;99.90;;;;;;5019119;28;20045;-72
2022/06/17 06:53:26;;;;;;;14.43;13.07;;;17.50;99.90;;;;;;5020523;28;20507;-73
2022/06/17 06:55:52;;;;;;;13.63;12.40;;;17.60;99.90;;;;;;4986419;28;20079;-72
2022/06/17 06:58:21;;;;;;;12.85;11.55;;;17.80;99.90;;;;;;5004628;28;20838;-72
2022/06/17 07:00:50;;;;;;;13.07;11.48;;;17.90;99.90;;;;;;4983900;28;20034;-72
2022/06/17 07:03:17;;;;;;;15.77;12.05;;;18.00;99.90;;;;;;4998224;28;20161;-71
2022/06/17 07:05:45;;;;;;;12.80;11.63;;;18.00;99.90;;;;;;5001977;28;20515;-72
2022/06/17 07:08:13;;;;;;;14.52;11.73;;;18.10;99.90;;;;;;5003835;28;20057;-72
2022/06/17 07:10:40;;;;;;;12.27;11.07;;;18.20;99.90;;;;;;5037554;28;20041;-72
2022/06/17 07:13:08;;;;;;;12.13;10.98;;;18.30;99.90;;;;;;5002403;28;20077;-72
2022/06/17 07:15:35;;;;;;;12.70;11.20;;;18.30;99.90;;;;;;5002556;28;20038;-72
2022/06/17 07:18:03;;;;;;;11.25;10.20;;;18.40;99.90;;;;;;5000209;28;20042;-72
2022/06/17 07:20:36;;;;;;;11.43;10.18;;;18.60;99.90;;;;;;5013145;28;20452;-72
2022/06/17 07:23:04;;;;;;;11.57;10.43;;;18.70;99.90;;;;;;4997285;28;20103;-72
2022/06/17 07:25:31;;;;;;;11.30;10.20;;;18.70;99.90;;;;;;4995475;28;20047;-73
2022/06/17 07:27:56;;;;;;;10.43;9.35;;;18.80;99.90;;;;;;4983378;28;20209;-71
2022/06/17 07:30:22;;;;;;;11.20;10.10;;;18.90;99.90;;;;;;4995792;28;20149;-71
2022/06/17 07:32:48;;;;;;;11.50;10.02;;;18.90;99.90;;;;;;4980436;28;20057;-71
2022/06/17 07:35:15;;;;;;;11.00;9.90;;;19.00;99.90;;;;;;4983781;28;20084;-71
2022/06/17 07:40:28;;;;;;;12.43;10.02;;;19.10;99.90;;;;;;5014794;28;20080;-72
2022/06/17 07:42:55;;;;;;;11.68;10.25;;;19.20;99.90;;;;;;5000280;28;20181;-71
2022/06/17 07:45:21;;;;;;;10.70;9.25;;;19.40;99.90;;;;;;5009019;28;20041;-71
2022/06/17 07:47:54;;;;;;;10.35;9.25;;;19.60;99.90;;;;;;4986075;28;20481;-71
2022/06/17 07:50:32;;;;;;;12.32;10.20;;;19.80;99.90;;;;;;5000569;28;20042;-72
2022/06/17 07:52:58;;;;;;;10.68;9.63;;;20.00;99.90;;;;;;5012879;28;20046;-71
2022/06/17 07:55:24;;;;;;;10.98;9.68;;;20.30;99.90;;;;;;4997909;28;20100;-72
2022/06/17 07:57:51;;;;;;;11.77;9.32;;;20.30;99.90;;;;;;4988088;28;20049;-71
2022/06/17 08:00:24;;;;;;;11.60;10.10;;;20.50;99.90;;;;;;5015581;28;20038;-72
2022/06/17 08:02:50;;;;;;;10.50;9.50;;;20.50;99.90;;;;;;4999896;28;20045;-72
2022/06/17 08:05:17;;;;;;;10.85;9.75;;;20.50;99.90;;;;;;5000022;28;20046;-71
2022/06/17 08:07:43;;;;;;;10.15;9.15;;;20.60;99.90;;;;;;4999388;28;20490;-72
2022/06/17 08:10:14;;;;;;;10.65;9.55;;;20.60;99.90;;;;;;4985581;28;20046;-71
2022/06/17 08:12:40;;;;;;;11.02;9.93;;;20.60;99.90;;;;;;5001174;28;20046;-71
2022/06/17 08:15:06;;;;;;;10.35;9.32;;;20.60;99.90;;;;;;4981411;28;20500;-72
2022/06/17 08:17:32;;;;;;;12.70;9.23;;;20.70;99.90;;;;;;4999351;28;20500;-72
2022/06/17 08:19:58;;;;;;;10.90;9.02;;;20.70;99.90;;;;;;5008816;28;20050;-72
2022/06/17 08:22:25;;;;;;;11.07;9.13;;;20.80;99.90;;;;;;5000182;28;20053;-71
2022/06/17 08:24:57;;;;;;;12.73;9.82;;;20.90;99.90;;;;;;5001259;28;20057;-71
2022/06/17 08:27:23;;;;;;;10.48;8.90;;;21.00;99.90;;;;;;4989483;28;20281;-73
2022/06/17 08:29:51;;;;;;;10.45;8.93;;;21.00;99.90;;;;;;4983645;28;20378;-72
2022/06/17 08:35:01;;;;;;;11.10;8.40;;;21.20;99.90;;;;;;5031112;28;20140;-74
2022/06/17 08:37:26;;;;;;;11.13;7.82;;;21.30;99.90;;;;;;4998141;28;20142;-73
2022/06/17 08:39:53;;;;;;;12.15;8.45;;;21.40;99.90;;;;;;4998571;28;20129;-73
2022/06/17 08:42:47;;;;;;;9.82;8.13;;;21.50;99.90;;;;;;5002670;28;20493;-73
2022/06/17 08:45:40;;;;;;;10.88;8.27;;;21.50;99.90;;;;;;5002366;28;20127;-70
2022/06/17 08:48:28;;;;;;;13.07;8.13;;;21.60;99.90;;;;;;5000045;28;20054;-72
2022/06/17 08:51:29;;;;;;;10.02;7.78;;;21.80;99.90;;;;;;5030116;28;20053;-72
2022/06/17 08:54:05;;;;;;;11.60;7.90;;;22.00;99.90;;;;;;5004055;28;20048;-72
2022/06/17 08:56:39;;;;;;;12.30;8.13;;;22.20;99.90;;;;;;4996556;28;20049;-73
2022/06/17 08:59:45;;;;;;;10.95;8.15;;;22.20;99.90;;;;;;4987442;28;20133;-72
2022/06/17 09:02:37;;;;;;;9.73;6.95;;;22.20;99.90;;;;;;5031275;28;20369;-73
2022/06/17 09:05:35;;;;;;;10.10;6.47;;;22.20;99.90;;;;;;5029224;28;20038;-71
2022/06/17 09:08:41;;;;;;;10.85;5.40;;;22.10;99.90;;;;;;4982942;28;20121;-72
2022/06/17 09:11:19;;;;;;;8.88;4.65;;;22.10;99.90;;;;;;4987884;28;20047;-72
2022/06/17 09:13:57;;;;;;;7.20;4.45;;;22.10;99.90;;;;;;4990420;28;20390;-71
2022/06/17 09:16:40;;;;;;;7.18;4.40;;;22.10;99.90;;;;;;4998993;28;20042;-71
2022/06/17 09:19:07;;;;;;;8.43;5.25;;;22.10;99.90;;;;;;4997862;28;20481;-73
2022/06/17 09:21:41;;;;;;;7.47;4.70;;;22.10;99.90;;;;;;4984332;28;20587;-73
2022/06/17 09:24:10;;;;;;;8.57;4.40;;;22.20;99.90;;;;;;4989022;28;20154;-73
2022/06/17 09:26:45;;;;;;;;;;;22.20;99.70;;;;;;5014905;28;20509;-72
2022/06/17 09:29:11;;;;;;;8.35;4.57;;;22.30;98.10;;;;;;4999349;28;19925;-72
2022/06/17 09:31:42;;;;;;;8.52;4.82;;;22.40;99.40;;;;;;5016067;28;20136;-72
2022/06/17 09:34:11;;;;;;;9.77;4.63;;;22.50;99.30;;;;;;5033069;28;20057;-73
2022/06/17 09:36:49;;;;;;;9.10;4.88;;;22.60;97.50;;;;;;5002902;28;20053;-72
2022/06/17 09:39:33;;;;;;;9.20;4.30;;;22.60;97.30;;;;;;4994173;28;20057;-72
2022/06/17 09:42:08;;;;;;;12.80;4.40;;;22.60;96.20;;;;;;4990057;28;20041;-73
2022/06/17 09:45:01;;;;;;;8.00;4.70;;;22.60;96.40;;;;;;4990621;28;20561;-73
2022/06/17 09:47:38;;;;;;;7.93;4.68;;;22.60;95.20;;;;;;4981794;28;20105;-71
2022/06/17 09:50:17;;;;;;;8.57;4.63;;;22.60;96.10;;;;;;5032546;28;20054;-71
2022/06/17 09:52:52;;;;;;;8.50;4.97;;;22.60;96.60;;;;;;5035875;28;20046;-72
2022/06/17 09:55:33;;;;;;;6.32;3.90;;;22.80;97.40;;;;;;4994617;28;20046;-72
2022/06/17 09:58:19;;;;;;;5.28;4.22;;;23.10;98.00;;;;;;4986008;28;20046;-72
2022/06/17 10:01:03;;;;;;;9.27;4.30;;;23.30;95.90;;;;;;4996827;28;20133;-73
2022/06/17 10:03:34;;;;;;;6.70;4.85;;;23.40;94.20;;;;;;5008567;28;20033;-72
2022/06/17 10:06:06;;;;;;;6.57;4.68;;;23.40;93.90;;;;;;4982576;28;20049;-71
2022/06/17 10:08:56;;;;;;;6.90;4.38;;;23.40;94.90;;;;;;5000396;28;20564;-72
2022/06/17 10:11:32;;;;;;;;;;;23.40;94.90;;;;;;4997250;28;20045;-71
2022/06/17 10:14:44;;;;;;;7.40;4.95;;;23.30;94.80;;;;;;5004254;28;19922;-72
2022/06/17 10:20:24;;;;;;;7.68;4.82;;;23.50;96.00;;;;;;5032712;28;20117;-72
2022/06/17 10:23:28;;;;;;;6.07;4.80;;;23.50;95.40;;;;;;5004383;28;20061;-73
2022/06/17 10:26:06;;;;;;;7.93;4.90;;;23.60;94.90;;;;;;5000413;28;20054;-72
2022/06/17 10:28:51;;;;;;;6.67;5.33;;;23.70;94.60;;;;;;5003972;28;20181;-71
2022/06/17 10:31:17;;;;;;;7.45;5.13;;;23.70;95.10;;;;;;4983080;28;20305;-71
2022/06/17 10:33:43;;;;;;;8.05;4.60;;;23.60;93.40;;;;;;5035423;28;20053;-72
2022/06/17 10:36:09;;;;;;;7.07;5.05;;;23.60;93.90;;;;;;5034491;28;20034;-72
2022/06/17 10:38:39;;;;;;;7.82;5.15;;;23.60;93.30;;;;;;5002728;28;20173;-72
2022/06/17 10:41:06;;;;;;;7.88;4.88;;;23.60;93.60;;;;;;5009354;28;20481;-72
2022/06/17 10:43:38;;;;;;;7.50;4.70;;;23.60;94.40;;;;;;5001478;28;20065;-71
2022/06/17 10:46:05;;;;;;;7.55;4.55;;;23.60;94.60;;;;;;5002021;28;20251;-72
2022/06/17 10:48:37;;;;;;;5.82;4.25;;;23.70;95.10;;;;;;5001762;28;20875;-73
2022/06/17 10:51:06;;;;;;;8.63;4.43;;;23.80;94.00;;;;;;5013252;28;20046;-72
2022/06/17 10:53:37;;;;;;;7.47;3.95;;;23.90;93.70;;;;;;5005606;28;20196;-72
2022/06/17 10:56:31;;;;;;;7.07;4.47;;;24.00;94.00;;;;;;5008940;28;20046;-72
2022/06/17 10:59:02;;;;;;;7.38;4.63;;;24.30;93.20;;;;;;4976326;28;20140;-72
2022/06/17 11:01:52;;;;;;;6.80;4.28;;;24.50;92.60;;;;;;5013385;28;20137;-72
2022/06/17 11:04:20;;;;;;;6.63;4.00;;;24.50;93.20;;;;;;5015218;28;20040;-72
2022/06/17 11:07:14;;;;;;;9.57;4.28;;;24.60;93.70;;;;;;4997045;28;20045;-72
2022/06/17 11:09:49;;;;;;;9.57;4.88;;;24.60;93.30;;;;;;5003244;28;20163;-72
2022/06/17 11:12:19;;;;;;;9.82;5.35;;;24.70;91.70;;;;;;5036359;28;20064;-71
2022/06/17 11:14:45;;;;;;;8.88;4.65;;;24.60;88.70;;;;;;4991637;28;20166;-71
2022/06/17 11:17:14;;;;;;;8.70;4.20;;;24.50;89.60;;;;;;5005601;28;20049;-72
2022/06/17 11:19:41;;;;;;;7.55;4.68;;;24.50;90.80;;;;;;5012585;28;20068;-73
2022/06/17 11:22:20;;;;;;;7.68;4.00;;;24.40;90.60;;;;;;5004845;28;20046;-72
2022/06/17 11:24:55;;;;;;;9.83;5.23;;;24.50;91.30;;;;;;5039382;28;20061;-72
2022/06/17 11:27:42;;;;;;;8.38;4.25;;;24.50;91.50;;;;;;5000659;28;20076;-72
2022/06/17 11:30:34;;;;;;;8.45;4.95;;;24.60;92.90;;;;;;4998991;28;20125;-72
2022/06/17 11:33:01;;;;;;;6.80;4.43;;;24.70;91.80;;;;;;4992850;28;20050;-73
2022/06/17 11:35:33;;;;;;;8.98;4.85;;;24.70;90.10;;;;;;4986934;28;20044;-72
2022/06/17 11:38:02;;;;;;;7.35;5.03;;;24.70;87.20;;;;;;5003932;28;20049;-72
2022/06/17 11:40:32;;;;;;;8.43;5.50;;;24.70;86.80;;;;;;5000609;28;20042;-72
2022/06/17 11:43:03;;;;;;;8.15;4.32;;;24.70;86.70;;;;;;5002707;28;20046;-72
2022/06/17 11:45:31;;;;;;;9.30;5.05;;;24.70;85.50;;;;;;4987867;28;20081;-71
2022/06/17 11:48:19;;;;;;;10.20;5.07;;;24.70;85.70;;;;;;5000100;28;20493;-72
2022/06/17 11:51:25;;;;;;;10.13;4.75;;;24.70;85.00;;;;;;5001310;28;20053;-73
2022/06/17 11:53:52;;;;;;;5.55;4.57;;;24.70;84.70;;;;;;4999006;28;20098;-71
2022/06/17 11:56:35;;;;;;;6.47;4.43;;;24.80;88.10;;;;;;5000828;28;20034;-72
2022/06/17 11:59:09;;;;;;;6.90;4.43;;;24.90;86.00;;;;;;4984426;28;20045;-71
2022/06/17 12:01:35;;;;;;;6.63;4.25;;;25.10;82.10;;;;;;5032349;28;20116;-72
2022/06/17 12:04:01;;;;;;;8.15;5.25;;;25.20;83.30;;;;;;4983162;28;20513;-73
2022/06/17 12:06:42;;;;;;;7.45;4.70;;;25.30;83.10;;;;;;5038491;28;20091;-71
2022/06/17 12:09:31;;;;;;;8.68;4.72;;;25.30;78.00;;;;;;5008035;28;20049;-73
2022/06/17 12:12:02;;;;;;;6.68;4.38;;;25.40;80.70;;;;;;4995507;28;20535;-72
2022/06/17 12:14:39;;;;;;;6.65;4.63;;;25.30;77.90;;;;;;5036907;28;20038;-72
2022/06/17 12:17:12;;;;;;;7.60;4.20;;;25.30;77.30;;;;;;4998092;28;20129;-72
2022/06/17 12:19:41;;;;;;;6.95;5.35;;;25.30;77.40;;;;;;5003076;28;20045;-73
2022/06/17 12:22:22;;;;;;;6.38;4.18;;;25.40;78.40;;;;;;5016227;28;20033;-71
2022/06/17 12:25:00;;;;;;;11.18;4.97;;;25.60;79.40;;;;;;4999433;28;20046;-71
2022/06/17 12:27:36;;;;;;;8.55;4.80;;;25.80;78.50;;;;;;4984845;28;20412;-71
2022/06/17 12:30:10;;;;;;;6.28;4.00;;;26.00;76.60;;;;;;5002024;28;20400;-71
2022/06/17 12:33:07;;;;;;;7.20;4.60;;;26.20;78.50;;;;;;5009386;28;20046;-71
2022/06/17 12:35:52;;;;;;;6.93;4.68;;;26.50;77.20;;;;;;5014361;28;20068;-71
2022/06/17 12:38:56;;;;;;;6.03;4.00;;;26.70;77.00;;;;;;4995369;28;20404;-71
2022/06/17 12:41:35;;;;;;;6.35;3.80;;;26.70;75.50;;;;;;4971634;28;20530;-72
2022/06/17 12:44:21;;;;;;;10.90;4.20;;;26.70;73.30;;;;;;5014491;28;20493;-71
2022/06/17 12:47:04;;;;;;;8.68;4.25;;;26.90;73.50;;;;;;4999728;28;20043;-72
2022/06/17 12:56:03;;;;;;;6.07;4.20;;;26.80;69.70;;;;;;4996027;28;20601;-71
2022/06/17 12:58:56;;;;;;;7.85;4.53;;;26.90;73.30;;;;;;5000978;28;20033;-71
2022/06/17 13:01:50;;;;;;;5.97;3.60;;;27.10;73.40;;;;;;5018545;28;20504;-71
2022/06/17 13:04:31;;;;;;;5.97;3.50;;;27.30;73.10;;;;;;4997586;28;20049;-71
2022/06/17 13:07:16;;;;;;;6.03;4.13;;;27.60;68.10;;;;;;5000490;28;20038;-71
2022/06/17 13:10:40;;;;;;;9.40;4.20;;;27.50;65.90;;;;;;5031621;28;20541;-71
2022/06/17 13:13:30;;;;;;;7.43;3.42;;;27.40;65.50;;;;;;4981183;28;20363;-71
2022/06/17 13:15:56;;;;;;;;;;;27.30;66.10;;;;;;5012307;28;20084;-72
2022/06/17 13:18:34;;;;;;;7.97;4.15;;;27.20;65.30;;;;;;4990932;28;20316;-71
2022/06/17 13:21:09;;;;;;;7.33;3.70;;;27.20;64.70;;;;;;4983905;28;20103;-71
2022/06/17 13:23:39;;;;;;;6.78;3.42;;;27.10;66.70;;;;;;4983567;28;20053;-70
2022/06/17 13:26:41;;;;;;;11.40;4.72;;;27.20;69.50;;;;;;5010622;28;20093;-70
2022/06/17 13:29:44;;;;;;;7.68;3.58;;;27.30;67.70;;;;;;4969343;28;20200;-71
2022/06/17 13:32:24;;;;;;;9.55;4.20;;;27.30;69.10;;;;;;5014928;28;20402;-71